Bei Facebook empfehlenBei Twitter postenGoogle plusPinterest

Das Wetter im Erzgebirge am 17.12.2015

Wetter und Klima am 17.12.2015 Holzhau im Erzgebirge (630m ü.NN)
Letzte gemessene Temperatur und Uhrzeit der Messung23:45:00 Uhr5.60 °C
Temperatur (Maximum / Höchstwert) und Uhrzeit der Messung13:45:00 Uhr9.10 °C
Temperatur (Minimum / Tiefstwert) und Uhrzeit der Messung00:30:004.20 °C
Errechneter Absolutwert der Temperaturschwankungen zwischen Tmin und Tmax des Tages4.90 K
Errechnete Tagesmitteltemperatur7.12813 °C
Gesamt - Niederschlag des Tages (in flüssiger Form)2.59 Liter / m²
Luftdruck (Maximum / Höchstwert) und Zeitpunkt der Messung00:00:00 Uhr1021.60 hPa
Luftdruck (Minimum / Tiefstwert) und Zeitpunkt der Messung22:30:00 Uhr1019.10 hPa
Errechneter Absolutwert der Luftdruckschwankungen des Tages2.50 hPa
Höchste gemessene Windgeschwindigkeit und Uhrzeit der Messung09:00:00 Uhr16.92 km/h
Errechnete Windhäufigkeit in Relation zu den Messwerten des Tages16.66667 %
Niedrigste Windkühle (Windchill) und Zeitpunkt der Messung00:30:00 Uhr4.20 °C
Taupunkt (Maximum / Höchstwert) und Uhrzeit der Messung13:45:00 Uhr8.60 °C
Taupunkt (Minimum / Tiefstwert) und Uhrzeit der Messung00:30:003.50 °C
Anzahl der automatisch eingelesenen Messwerte 96

Detaillierte Wetter- und Klima- Messwerte für den 17.12.2015 in Holzhau im Erzgebirge (630m ü.NN)
ZeitTemperaturLuftdruckRel. LuftfeuchteWindWindrichtungWindchillTaupunktNiederschlag l/m²
23:45:005.60 °C1019.50 hPa96.00 %5.00 °C2.59
23:30:005.80 °C1019.40 hPa96.00 %5.20 °C2.59
23:15:005.90 °C1019.40 hPa96.00 %5.30 °C2.59
23:00:006.10 °C1019.30 hPa96.00 %5.50 °C2.59
22:45:006.30 °C1019.20 hPa96.00 %5.70 °C2.59
22:30:006.40 °C1019.10 hPa96.00 %5.80 °C2.59
22:15:006.40 °C1019.20 hPa96.00 %5.80 °C2.59
22:00:006.30 °C1019.10 hPa96.00 %5.70 °C2.59
21:45:006.40 °C1019.30 hPa96.00 %5.80 °C2.59
21:30:006.60 °C1019.30 hPa96.00 %6.00 °C2.59
21:15:006.80 °C1019.40 hPa96.00 %6.20 °C2.59
21:00:006.90 °C1019.40 hPa96.00 %6.30 °C2.59
20:45:007.20 °C1019.20 hPa96.00 %6.60 °C2.59
20:30:007.50 °C1019.30 hPa96.00 %6.90 °C2.59
20:15:007.90 °C1019.40 hPa97.00 %7.50 °C2.59
20:00:007.90 °C1019.40 hPa96.00 %7.30 °C2.59
19:45:008.10 °C1019.50 hPa96.00 %7.50 °C2.59
19:30:008.10 °C1019.50 hPa96.00 %7.50 °C2.59
19:15:008.10 °C1019.60 hPa97.00 %7.70 °C2.59
19:00:008.10 °C1019.60 hPa96.00 %7.50 °C2.59
18:45:008.10 °C1019.60 hPa97.00 %7.70 °C2.59
18:30:007.90 °C1019.30 hPa97.00 %7.50 °C2.59
18:15:007.80 °C1019.20 hPa96.00 %7.20 °C2.59
18:00:007.80 °C1019.30 hPa96.00 %7.20 °C2.59
17:45:007.80 °C1019.50 hPa96.00 %7.20 °C2.59
17:30:007.50 °C1019.40 hPa96.00 %6.90 °C2.59
17:15:007.30 °C1019.40 hPa96.00 %6.70 °C2.59
17:00:007.20 °C1019.40 hPa96.00 %6.60 °C2.59
16:45:007.20 °C1019.50 hPa96.00 %6.60 °C2.59
16:30:007.30 °C1019.50 hPa96.00 %6.70 °C2.59
16:15:007.60 °C1019.40 hPa96.00 %7.00 °C2.59
16:00:007.90 °C1019.50 hPa96.00 %7.30 °C2.59
15:45:007.90 °C1019.50 hPa96.00 %7.30 °C2.59
15:30:008.30 °C1019.40 hPa96.00 %7.70 °C2.59
15:15:008.60 °C1019.40 hPa96.00 %8.00 °C2.59
15:00:008.80 °C1019.40 hPa96.00 %8.20 °C2.59
14:45:008.90 °C1019.50 hPa96.00 %8.30 °C2.59
14:30:008.80 °C1019.40 hPa96.00 %8.20 °C2.59
14:15:008.90 °C1019.50 hPa96.00 %8.30 °C2.59
14:00:009.00 °C1019.70 hPa97.00 %8.50 °C2.59
13:45:009.10 °C1019.80 hPa97.00 %8.60 °C2.59
13:30:009.00 °C1020.10 hPa97.00 %8.50 °C2.59
13:15:009.10 °C1020.10 hPa97.00 %9.36 km/hSW7.70 °C8.60 °C2.59
13:00:009.10 °C1020.30 hPa97.00 %7.92 km/hW8.00 °C8.60 °C2.59
12:45:008.90 °C1020.50 hPa97.00 %9.00 km/hWSW7.50 °C8.50 °C2.59
12:30:008.90 °C1020.60 hPa97.00 %11.16 km/hWSW7.10 °C8.50 °C2.59
12:15:008.90 °C1020.60 hPa97.00 %7.20 km/hWSW7.90 °C8.50 °C2.59
12:00:008.60 °C1020.50 hPa97.00 %1.80 km/hW8.60 °C8.20 °C2.59
11:45:008.50 °C1020.60 hPa97.00 %3.24 km/hSW8.50 °C8.10 °C2.59
11:30:008.40 °C1020.60 hPa97.00 %3.60 km/hWNW8.40 °C8.00 °C2.59
11:15:008.40 °C1020.90 hPa97.00 %8.00 °C2.59
11:00:008.30 °C1021.00 hPa97.00 %2.52 km/hWNW8.30 °C7.90 °C2.08
10:45:008.30 °C1021.20 hPa97.00 %7.90 °C2.08
10:30:008.30 °C1021.10 hPa96.00 %7.70 °C2.08
10:15:008.30 °C1021.00 hPa96.00 %7.70 °C2.08
10:00:008.20 °C1020.90 hPa96.00 %5.04 km/hNW7.70 °C7.60 °C2.08
09:45:008.10 °C1020.70 hPa96.00 %7.50 °C2.08
09:30:008.10 °C1020.40 hPa96.00 %7.50 °C2.08
09:15:008.10 °C1020.30 hPa96.00 %7.50 °C2.08
09:00:007.90 °C1020.40 hPa96.00 %16.92 km/hWNW5.10 °C7.30 °C2.08
08:45:007.90 °C1020.30 hPa96.00 %7.30 °C2.08
08:30:007.80 °C1020.30 hPa96.00 %7.20 °C2.08
08:15:007.80 °C1020.30 hPa96.00 %7.20 °C1.56
08:00:007.80 °C1019.80 hPa96.00 %7.20 °C1.56
07:45:007.80 °C1019.80 hPa96.00 %7.20 °C1.04
07:30:007.80 °C1019.80 hPa96.00 %7.20 °C1.04
07:15:007.80 °C1019.90 hPa96.00 %7.20 °C0.52
07:00:007.80 °C1019.80 hPa96.00 %7.20 °C0.52
06:45:007.60 °C1019.90 hPa96.00 %2.52 km/hNW7.60 °C7.00 °C0.52
06:30:007.40 °C1019.80 hPa96.00 %6.80 °C0.52
06:15:007.20 °C1019.50 hPa96.00 %2.16 km/hWNW7.20 °C6.60 °C0.52
06:00:006.60 °C1019.60 hPa96.00 %6.00 °C0.52
05:45:005.90 °C1019.70 hPa95.00 %5.20 °C0.52
05:30:005.60 °C1019.80 hPa95.00 %4.90 °C0.52
05:15:005.50 °C1019.80 hPa95.00 %4.80 °C0.52
05:00:005.40 °C1019.90 hPa95.00 %2.52 km/hSO5.40 °C4.70 °C0.52
04:45:005.30 °C1020.10 hPa95.00 %4.60 °C0.52
04:30:005.30 °C1020.00 hPa95.00 %4.60 °C0.52
04:15:005.30 °C1019.90 hPa95.00 %4.60 °C0.52
04:00:005.30 °C1019.90 hPa95.00 %4.60 °C 
03:45:005.40 °C1020.10 hPa95.00 %4.70 °C 
03:30:005.50 °C1020.20 hPa95.00 %1.44 km/hONO5.50 °C4.80 °C 
03:15:005.60 °C1020.20 hPa95.00 %4.90 °C 
03:00:005.60 °C1020.10 hPa95.00 %4.90 °C 
02:45:005.50 °C1020.40 hPa95.00 %4.80 °C 
02:30:005.30 °C1020.30 hPa95.00 %4.60 °C 
02:15:005.40 °C1020.20 hPa95.00 %4.70 °C 
02:00:005.30 °C1020.40 hPa95.00 %4.60 °C 
01:45:005.10 °C1020.50 hPa95.00 %4.40 °C 
01:30:004.80 °C1020.50 hPa95.00 %4.10 °C 
01:15:004.70 °C1020.80 hPa95.00 %4.00 °C 
01:00:004.50 °C1021.00 hPa95.00 %3.80 °C 
00:45:004.30 °C1021.10 hPa95.00 %3.60 °C 
00:30:004.20 °C1021.20 hPa95.00 %3.24 km/hOSO4.20 °C3.50 °C 
00:15:004.30 °C1021.30 hPa95.00 %3.60 °C 
00:00:004.40 °C1021.60 hPa95.00 %3.70 °C 

Permanenter Link zu dieser Seite: Wetter im Erzgebirge am 17.12.2015
Performance-Info: Die Erstellung der Seite / Statistik(en) / Tabelle(n) erforderte 5 Datenbankserver-Abfrage(n) und dauerte 99 Millisekunden. (Dieser Messwert ist von der Gesamt-Auslastung des Servers abhängig.)
Erzgebirge - Wetter | Erzgebirge - Wetter (Mobilgeräte) | Komplette Klimadatenbank